createdAt,value
2018-01-13T00:00:26.662Z,31.37
2018-01-13T00:02:59.099Z,31.93
2018-01-13T00:05:31.845Z,30.50
2018-01-13T00:08:06.018Z,27.50
2018-01-13T00:10:38.850Z,25.30
2018-01-13T00:13:11.264Z,36.10
2018-01-13T00:15:43.712Z,31.97
2018-01-13T00:18:16.365Z,34.33
2018-01-13T00:20:48.978Z,29.83
2018-01-13T00:23:21.439Z,26.60
2018-01-13T00:25:54.193Z,29.13
2018-01-13T00:28:27.661Z,32.13
2018-01-13T00:31:00.220Z,31.20
2018-01-13T00:33:32.854Z,30.50
2018-01-13T00:36:07.041Z,30.10
2018-01-13T00:38:39.848Z,29.27
2018-01-13T00:41:13.293Z,28.77
2018-01-13T00:43:45.929Z,29.83
2018-01-13T00:46:18.697Z,28.00
2018-01-13T00:48:51.206Z,34.27
2018-01-13T00:51:23.726Z,27.83
2018-01-13T00:53:56.311Z,26.87
2018-01-13T00:56:29.189Z,27.20
2018-01-13T00:59:03.122Z,31.27
2018-01-13T01:01:35.913Z,39.87
2018-01-13T01:04:08.369Z,39.90
2018-01-13T01:06:40.846Z,37.10
2018-01-13T01:09:13.475Z,30.90
2018-01-13T01:11:46.837Z,37.07
2018-01-13T01:14:20.232Z,35.50
2018-01-13T01:16:53.734Z,28.67
2018-01-13T01:19:27.157Z,32.83
2018-01-13T01:21:59.964Z,30.70
2018-01-13T01:24:32.438Z,34.10
2018-01-13T01:27:05.840Z,29.57
2018-01-13T01:29:38.499Z,32.53
2018-01-13T01:32:11.128Z,33.80
2018-01-13T01:34:44.302Z,31.30
2018-01-13T01:37:17.380Z,39.20
2018-01-13T01:39:50.773Z,35.63
2018-01-13T01:42:23.441Z,34.70
2018-01-13T01:44:55.984Z,33.57
2018-01-13T01:47:28.535Z,48.10
2018-01-13T01:50:01.765Z,36.37
2018-01-13T01:52:35.147Z,39.83
2018-01-13T01:55:07.868Z,43.93
2018-01-13T01:57:40.746Z,33.90
2018-01-13T02:00:13.171Z,37.03
2018-01-13T02:02:45.909Z,36.13
2018-01-13T02:05:18.586Z,32.93
2018-01-13T02:07:51.071Z,42.97
2018-01-13T02:10:23.565Z,42.33
2018-01-13T02:12:56.172Z,43.27
2018-01-13T02:15:28.724Z,37.30
2018-01-13T02:18:02.363Z,38.17
2018-01-13T02:20:35.706Z,33.70
2018-01-13T02:23:08.268Z,31.67
2018-01-13T02:25:40.870Z,28.07
2018-01-13T02:28:13.428Z,34.33
2018-01-13T02:30:45.900Z,37.63
2018-01-13T02:33:18.448Z,40.70
2018-01-13T02:35:50.952Z,34.10
2018-01-13T02:38:23.583Z,35.70
2018-01-13T02:40:56.244Z,40.37
2018-01-13T02:43:29.601Z,40.87
2018-01-13T02:46:02.478Z,42.53
2018-01-13T02:48:35.046Z,39.87
2018-01-13T02:51:07.660Z,37.87
2018-01-13T02:53:40.297Z,45.20
2018-01-13T02:56:13.629Z,47.70
2018-01-13T02:58:47.036Z,39.27
2018-01-13T03:01:19.799Z,42.93
2018-01-13T03:03:53.204Z,38.83
2018-01-13T03:06:26.054Z,33.20
2018-01-13T03:08:59.220Z,28.43
2018-01-13T03:11:31.731Z,34.03
2018-01-13T03:14:05.829Z,33.37
2018-01-13T03:16:38.562Z,36.00
2018-01-13T03:19:11.037Z,32.40
2018-01-13T03:21:43.538Z,33.60
2018-01-13T03:24:16.077Z,36.40
2018-01-13T03:26:48.651Z,40.57
2018-01-13T03:29:21.192Z,36.57
2018-01-13T03:31:54.623Z,36.97
2018-01-13T03:34:28.804Z,48.33
2018-01-13T03:37:01.584Z,40.37
2018-01-13T03:39:34.124Z,47.50
2018-01-13T03:42:06.631Z,42.40
2018-01-13T03:44:39.182Z,43.90
2018-01-13T03:47:12.552Z,54.93
2018-01-13T03:49:45.072Z,55.00
2018-01-13T03:52:18.271Z,56.03
2018-01-13T03:54:50.992Z,47.27
2018-01-13T03:57:23.579Z,57.40
2018-01-13T03:59:57.156Z,52.10
2018-01-13T04:02:29.853Z,44.33
2018-01-13T04:05:02.557Z,47.33
2018-01-13T04:07:35.031Z,45.73
2018-01-13T04:10:07.615Z,52.53
2018-01-13T04:12:40.142Z,55.90
2018-01-13T04:15:12.806Z,41.97
2018-01-13T04:17:45.454Z,49.63
2018-01-13T04:20:18.754Z,55.37
2018-01-13T04:22:52.330Z,44.87
2018-01-13T04:25:25.104Z,41.57
2018-01-13T04:27:57.710Z,41.20
2018-01-13T04:30:30.953Z,39.37
2018-01-13T04:33:03.380Z,38.70
2018-01-13T04:35:35.946Z,43.53
2018-01-13T04:38:08.471Z,37.13
2018-01-13T04:40:41.773Z,45.47
2018-01-13T04:43:14.668Z,42.93
2018-01-13T04:45:47.077Z,49.30
2018-01-13T04:48:20.540Z,46.80
2018-01-13T04:50:53.809Z,44.90
2018-01-13T04:53:26.316Z,40.80
2018-01-13T04:55:59.036Z,49.27
2018-01-13T04:58:31.541Z,41.20
2018-01-13T05:01:05.667Z,46.03
2018-01-13T05:03:38.710Z,42.90
2018-01-13T05:06:11.328Z,46.47
2018-01-13T05:08:43.796Z,52.63
2018-01-13T05:11:16.364Z,46.10
2018-01-13T05:13:49.188Z,57.47
2018-01-13T05:16:22.675Z,46.10
2018-01-13T05:18:56.116Z,41.30
2018-01-13T05:21:29.846Z,47.90
2018-01-13T05:24:02.796Z,54.60
2018-01-13T05:26:35.317Z,46.50
2018-01-13T05:29:08.635Z,48.03
2018-01-13T05:31:41.435Z,58.07
2018-01-13T05:34:14.080Z,54.03
2018-01-13T05:36:46.674Z,52.40
2018-01-13T05:39:20.756Z,50.43
2018-01-13T05:41:53.453Z,52.03
2018-01-13T05:44:26.039Z,48.27
2018-01-13T05:46:58.668Z,49.53
2018-01-13T05:49:31.489Z,49.37
2018-01-13T05:52:04.629Z,47.47
2018-01-13T05:54:37.369Z,52.30
2018-01-13T05:57:09.817Z,51.60
2018-01-13T05:59:43.297Z,51.90
2018-01-13T06:02:15.728Z,48.43
2018-01-13T06:04:48.292Z,42.03
2018-01-13T06:07:20.829Z,49.77
2018-01-13T06:09:53.482Z,53.00
2018-01-13T06:12:26.748Z,54.63
2018-01-13T06:15:00.389Z,59.43
2018-01-13T06:17:33.265Z,47.10
2018-01-13T06:20:07.094Z,53.80
2018-01-13T06:22:40.050Z,42.23
2018-01-13T06:25:12.540Z,60.20
2018-01-13T06:27:45.828Z,42.00
2018-01-13T06:30:19.355Z,36.40
2018-01-13T06:32:52.095Z,37.23
2018-01-13T06:35:24.753Z,32.43
2018-01-13T06:37:57.292Z,38.90
2018-01-13T06:40:29.893Z,36.97
2018-01-13T06:43:02.960Z,48.80
2018-01-13T06:45:36.251Z,42.33
2018-01-13T06:48:08.712Z,37.17
2018-01-13T06:50:41.179Z,33.00
2018-01-13T06:53:13.709Z,28.37
2018-01-13T06:55:47.146Z,30.30
2018-01-13T06:58:19.793Z,39.57
2018-01-13T07:00:52.436Z,40.30
2018-01-13T07:03:25.089Z,36.27
2018-01-13T07:05:57.593Z,34.20
2018-01-13T07:08:30.007Z,35.50
2018-01-13T07:11:03.313Z,31.00
2018-01-13T07:13:36.078Z,27.97
2018-01-13T07:16:09.442Z,28.73
2018-01-13T07:18:42.858Z,23.30
2018-01-13T07:21:16.226Z,24.97
2018-01-13T07:23:49.094Z,25.77
2018-01-13T07:26:21.875Z,25.40
2018-01-13T07:28:54.350Z,28.43
2018-01-13T07:31:27.030Z,26.47
2018-01-13T07:34:01.205Z,22.23
2018-01-13T07:36:34.088Z,21.70
2018-01-13T07:39:07.493Z,26.47
2018-01-13T07:41:40.941Z,24.70
2018-01-13T07:44:13.532Z,20.50
2018-01-13T07:46:46.136Z,23.47
2018-01-13T07:49:19.658Z,21.83
2018-01-13T07:51:52.325Z,23.33
2018-01-13T07:54:25.733Z,24.10
2018-01-13T07:56:58.592Z,26.00
2018-01-13T07:59:31.016Z,22.10
2018-01-13T08:02:03.448Z,27.50
2018-01-13T08:04:35.902Z,21.63
2018-01-13T08:07:09.318Z,24.40
2018-01-13T08:09:42.910Z,20.43
2018-01-13T08:12:15.566Z,24.50
2018-01-13T08:14:49.126Z,23.27
2018-01-13T08:17:21.826Z,19.90
2018-01-13T08:19:55.929Z,23.23
2018-01-13T08:22:29.418Z,25.60
2018-01-13T08:25:03.032Z,25.03
2018-01-13T08:27:36.045Z,25.23
2018-01-13T08:30:09.198Z,28.00
2018-01-13T08:32:42.522Z,23.83
2018-01-13T08:35:15.200Z,16.60
2018-01-13T08:37:48.635Z,21.80
2018-01-13T08:40:22.013Z,26.73
2018-01-13T08:42:55.221Z,22.53
2018-01-13T08:45:27.603Z,29.43
2018-01-13T08:48:01.237Z,23.33
2018-01-13T08:50:34.629Z,25.33
2018-01-13T08:53:07.734Z,26.70
2018-01-13T08:55:41.787Z,24.67
2018-01-13T08:58:14.772Z,29.73
2018-01-13T09:00:47.740Z,26.50
2018-01-13T09:03:20.286Z,27.37
2018-01-13T09:05:53.759Z,26.00
2018-01-13T09:08:27.519Z,28.80
2018-01-13T09:11:01.003Z,28.73
2018-01-13T09:13:33.658Z,26.80
2018-01-13T09:16:06.914Z,25.13
2018-01-13T09:18:40.554Z,26.33
2018-01-13T09:21:13.290Z,27.30
2018-01-13T09:23:46.780Z,29.13
2018-01-13T09:26:19.208Z,27.67
2018-01-13T09:28:53.000Z,25.47
2018-01-13T09:31:25.459Z,24.87
2018-01-13T09:33:58.043Z,26.67
2018-01-13T09:36:30.669Z,27.87
2018-01-13T09:39:04.853Z,30.70
2018-01-13T09:41:37.454Z,31.53
2018-01-13T09:44:10.149Z,34.20
2018-01-13T09:46:43.393Z,28.43
2018-01-13T09:49:16.761Z,35.10
2018-01-13T09:51:49.576Z,33.10
2018-01-13T09:54:22.145Z,29.50
2018-01-13T09:56:54.687Z,28.70
2018-01-13T09:59:28.916Z,26.90
2018-01-13T10:02:01.596Z,29.43
2018-01-13T10:04:34.208Z,29.37
2018-01-13T10:07:07.558Z,30.10
2018-01-13T10:09:40.843Z,27.10
2018-01-13T10:12:13.457Z,25.30
2018-01-13T10:14:46.014Z,23.60
2018-01-13T10:17:18.464Z,27.77
2018-01-13T10:19:51.112Z,22.37
2018-01-13T10:22:24.538Z,30.00
2018-01-13T10:24:58.344Z,34.43
2018-01-13T10:27:30.888Z,23.27
2018-01-13T10:30:03.472Z,30.50
2018-01-13T10:32:36.673Z,33.10
2018-01-13T10:35:09.476Z,27.90
2018-01-13T10:37:41.968Z,28.63
2018-01-13T10:40:14.472Z,23.63
2018-01-13T10:42:47.056Z,24.37
2018-01-13T10:45:19.548Z,26.73
2018-01-13T10:47:52.016Z,26.83
2018-01-13T10:50:24.426Z,21.10
2018-01-13T10:52:57.024Z,29.30
2018-01-13T10:55:29.656Z,29.80
2018-01-13T10:58:02.241Z,25.53
2018-01-13T11:00:34.912Z,31.67
2018-01-13T11:03:07.456Z,29.43
2018-01-13T11:05:40.061Z,34.80
2018-01-13T11:08:13.728Z,26.20
2018-01-13T11:10:46.255Z,25.73
2018-01-13T11:13:19.863Z,29.53
2018-01-13T11:15:52.449Z,26.00
2018-01-13T11:18:26.803Z,27.83
2018-01-13T11:20:59.475Z,25.03
2018-01-13T11:23:32.000Z,24.13
2018-01-13T11:26:04.465Z,17.93
2018-01-13T11:28:37.121Z,25.33
2018-01-13T11:31:09.932Z,28.83
2018-01-13T11:33:42.510Z,28.87
2018-01-13T11:36:15.051Z,32.03
2018-01-13T11:38:47.735Z,26.23
2018-01-13T11:41:20.177Z,31.00
2018-01-13T11:43:52.866Z,29.70
2018-01-13T11:46:26.643Z,26.73
2018-01-13T11:49:00.513Z,22.03
2018-01-13T11:51:34.043Z,25.27
2018-01-13T11:54:07.759Z,25.67
2018-01-13T11:56:41.552Z,22.10
2018-01-13T11:59:14.993Z,22.80
2018-01-13T12:01:48.444Z,27.63
2018-01-13T12:04:21.832Z,29.43
2018-01-13T12:06:54.693Z,26.87
2018-01-13T12:09:29.191Z,25.60
2018-01-13T12:12:02.737Z,25.03
2018-01-13T12:14:35.439Z,27.67
2018-01-13T12:17:09.085Z,22.40
2018-01-13T12:19:42.673Z,23.47
2018-01-13T12:22:16.064Z,24.40
2018-01-13T12:24:49.505Z,25.60
2018-01-13T12:27:23.848Z,27.97
2018-01-13T12:29:57.289Z,25.20
2018-01-13T12:32:30.003Z,23.03
2018-01-13T12:35:03.319Z,30.60
2018-01-13T12:37:36.044Z,22.40
2018-01-13T12:40:09.349Z,23.10
2018-01-13T12:42:42.787Z,26.30
2018-01-13T12:45:16.259Z,22.17
2018-01-13T12:47:49.771Z,22.63
2018-01-13T12:50:23.367Z,21.17
2018-01-13T12:52:57.639Z,20.10
2018-01-13T12:55:31.141Z,24.90
2018-01-13T12:58:04.741Z,29.13
2018-01-13T13:00:37.629Z,31.17
2018-01-13T13:03:11.111Z,24.70
2018-01-13T13:05:44.468Z,28.57
2018-01-13T13:08:18.848Z,27.23
2018-01-13T13:10:53.083Z,28.63
2018-01-13T13:13:25.947Z,28.80
2018-01-13T13:15:59.271Z,26.37
2018-01-13T13:18:32.912Z,30.97
2018-01-13T13:21:06.643Z,29.80
2018-01-13T13:23:40.693Z,24.20
2018-01-13T13:26:13.206Z,23.50
2018-01-13T13:28:46.808Z,25.03
2018-01-13T13:31:19.560Z,28.43
2018-01-13T13:33:53.067Z,29.43
2018-01-13T13:36:26.715Z,27.27
2018-01-13T13:38:59.939Z,24.83
2018-01-13T13:41:32.504Z,23.50
2018-01-13T13:44:06.499Z,30.20
2018-01-13T13:46:40.669Z,29.40
2018-01-13T13:49:14.415Z,27.60
2018-01-13T13:51:48.416Z,25.30
2018-01-13T13:54:21.608Z,26.47
2018-01-13T13:56:55.129Z,27.97
2018-01-13T13:59:28.319Z,31.87
2018-01-13T14:02:01.752Z,31.97
2018-01-13T14:04:34.323Z,27.37
2018-01-13T14:07:07.875Z,38.87
2018-01-13T14:09:41.257Z,27.17
2018-01-13T14:12:15.138Z,30.60
2018-01-13T14:14:48.310Z,30.60
2018-01-13T14:17:22.611Z,31.50
2018-01-13T14:19:56.239Z,35.20
2018-01-13T14:22:29.728Z,28.90
2018-01-13T14:25:03.126Z,28.40
2018-01-13T14:27:36.468Z,33.93
2018-01-13T14:30:10.118Z,31.23
2018-01-13T14:32:42.632Z,33.87
2018-01-13T14:35:15.614Z,29.13
2018-01-13T14:37:49.237Z,35.67
2018-01-13T14:40:22.430Z,31.33
2018-01-13T14:42:57.400Z,35.57
2018-01-13T14:45:29.939Z,37.23
2018-01-13T14:48:03.497Z,32.87
2018-01-13T14:50:37.026Z,31.87
2018-01-13T14:53:09.766Z,37.13
2018-01-13T14:55:43.357Z,33.40
2018-01-13T14:58:16.574Z,29.33
2018-01-13T15:00:50.165Z,30.93
2018-01-13T15:03:24.520Z,30.13
2018-01-13T15:05:57.960Z,33.03
2018-01-13T15:08:41.300Z,36.60
2018-01-13T15:11:14.642Z,34.27
2018-01-13T15:13:47.993Z,39.87
2018-01-13T15:16:31.816Z,35.43
2018-01-13T15:19:05.373Z,35.43
2018-01-13T15:21:39.038Z,35.27
2018-01-13T15:24:12.339Z,35.73
2018-01-13T15:26:45.509Z,32.87
2018-01-13T15:29:18.222Z,35.53
2018-01-13T15:31:51.598Z,30.77
2018-01-13T15:34:24.402Z,34.27
2018-01-13T15:36:57.789Z,32.93
2018-01-13T15:39:30.377Z,30.00
2018-01-13T15:42:02.899Z,27.43
2018-01-13T15:44:35.266Z,41.07
2018-01-13T15:47:08.709Z,34.90
2018-01-13T15:49:41.259Z,33.53
2018-01-13T15:52:13.878Z,39.23
2018-01-13T15:54:46.422Z,32.20
2018-01-13T15:57:18.909Z,39.97
2018-01-13T15:59:51.751Z,33.47
2018-01-13T16:02:24.371Z,36.37
2018-01-13T16:04:58.566Z,34.17
2018-01-13T16:07:31.416Z,39.57
2018-01-13T16:10:04.793Z,41.90
2018-01-13T16:12:37.462Z,41.40
2018-01-13T16:15:10.352Z,41.57
2018-01-13T16:17:42.899Z,35.20
2018-01-13T16:20:16.238Z,39.57
2018-01-13T16:22:48.774Z,42.83
2018-01-13T16:25:22.150Z,39.10
2018-01-13T16:27:55.565Z,35.97
2018-01-13T16:30:28.042Z,35.83
2018-01-13T16:33:01.320Z,39.63
2018-01-13T16:35:34.548Z,34.80
2018-01-13T16:38:07.344Z,37.70
2018-01-13T16:40:39.797Z,35.97
2018-01-13T16:43:12.532Z,41.80
2018-01-13T16:45:45.019Z,34.00
2018-01-13T16:48:17.612Z,34.87
2018-01-13T16:50:50.977Z,36.20
2018-01-13T16:53:23.804Z,39.37
2018-01-13T16:55:56.428Z,38.73
2018-01-13T16:58:29.641Z,35.13
2018-01-13T17:01:02.375Z,38.10
2018-01-13T17:03:35.034Z,39.40
2018-01-13T17:06:07.520Z,44.33
2018-01-13T17:08:39.935Z,35.03
2018-01-13T17:11:12.542Z,41.03
2018-01-13T17:13:45.765Z,40.17
2018-01-13T17:16:18.685Z,33.20
2018-01-13T17:18:52.054Z,38.60
2018-01-13T17:21:24.782Z,32.53
2018-01-13T17:23:58.008Z,33.93
2018-01-13T17:26:30.937Z,42.73
2018-01-13T17:29:03.534Z,32.57
2018-01-13T17:31:36.165Z,39.37
2018-01-13T17:34:08.613Z,40.87
2018-01-13T17:36:41.953Z,45.63
2018-01-13T17:39:14.719Z,34.73
2018-01-13T17:41:47.319Z,30.93
2018-01-13T17:44:21.398Z,34.70
2018-01-13T17:46:54.205Z,37.57
2018-01-13T17:49:27.600Z,42.90
2018-01-13T17:52:00.239Z,33.50
2018-01-13T17:54:32.696Z,34.90
2018-01-13T17:57:05.316Z,37.83
2018-01-13T17:59:37.796Z,35.20
2018-01-13T18:02:10.883Z,40.67
2018-01-13T18:04:43.442Z,34.60
2018-01-13T18:07:16.012Z,32.63
2018-01-13T18:09:49.981Z,30.37
2018-01-13T18:12:23.434Z,36.13
2018-01-13T18:14:56.194Z,30.40
2018-01-13T18:17:28.907Z,30.10
2018-01-13T18:20:01.906Z,31.17
2018-01-13T18:22:35.606Z,31.83
2018-01-13T18:25:09.077Z,27.60
2018-01-13T18:27:41.965Z,27.10
2018-01-13T18:30:15.552Z,33.90
2018-01-13T18:32:48.780Z,31.97
2018-01-13T18:35:22.096Z,29.73
2018-01-13T18:37:54.696Z,38.93
2018-01-13T18:40:27.343Z,29.00
2018-01-13T18:42:59.932Z,34.17
2018-01-13T18:45:32.496Z,35.57
2018-01-13T18:48:05.226Z,29.90
2018-01-13T18:50:37.678Z,36.27
2018-01-13T18:53:10.480Z,29.40
2018-01-13T18:55:43.635Z,30.37
2018-01-13T18:58:16.321Z,31.23
2018-01-13T19:00:59.908Z,36.30
2018-01-13T19:03:34.896Z,32.10
2018-01-13T19:06:08.677Z,28.50
2018-01-13T19:08:41.834Z,32.30
2018-01-13T19:11:16.693Z,38.50
2018-01-13T19:13:50.120Z,31.20
2018-01-13T19:16:23.521Z,35.40
2018-01-13T19:18:56.964Z,34.10
2018-01-13T19:21:30.589Z,27.60
2018-01-13T19:24:04.982Z,31.10
2018-01-13T19:26:39.147Z,26.93
2018-01-13T19:29:12.743Z,28.67
2018-01-13T19:31:45.989Z,28.77
2018-01-13T19:34:20.047Z,21.47
2018-01-13T19:36:54.061Z,27.17
2018-01-13T19:39:27.818Z,23.70
2018-01-13T19:42:01.278Z,24.83
2018-01-13T19:44:35.003Z,29.97
2018-01-13T19:47:09.525Z,24.90
2018-01-13T19:49:44.876Z,32.80
2018-01-13T19:52:21.310Z,31.73
2018-01-13T19:54:56.592Z,30.10
2018-01-13T19:57:32.434Z,26.50
2018-01-13T20:00:07.520Z,27.60
2018-01-13T20:02:42.804Z,28.27
2018-01-13T20:05:27.704Z,23.80
2018-01-13T20:08:02.082Z,31.57
2018-01-13T20:10:37.008Z,22.40
2018-01-13T20:13:13.304Z,27.03
2018-01-13T20:15:48.582Z,25.80
2018-01-13T20:18:36.285Z,23.00
2018-01-13T20:21:11.641Z,20.50
2018-01-13T20:23:46.914Z,21.60
2018-01-13T20:26:22.113Z,21.93
2018-01-13T20:28:57.863Z,20.77
2018-01-13T20:31:33.554Z,25.20
2018-01-13T20:34:09.526Z,25.50
2018-01-13T20:36:44.896Z,24.30
2018-01-13T20:39:20.753Z,24.77
2018-01-13T20:41:56.450Z,18.73
2018-01-13T20:44:31.935Z,22.87
2018-01-13T20:47:07.145Z,23.97
2018-01-13T20:49:42.487Z,21.00
2018-01-13T20:52:19.221Z,25.63
2018-01-13T20:54:54.808Z,26.63
2018-01-13T20:57:30.597Z,21.33
2018-01-13T21:00:06.187Z,25.23
2018-01-13T21:02:41.523Z,24.57
2018-01-13T21:05:16.959Z,20.37
2018-01-13T21:07:53.675Z,25.20
2018-01-13T21:10:29.079Z,23.63
2018-01-13T21:13:04.852Z,24.67
2018-01-13T21:15:40.498Z,27.23
2018-01-13T21:18:15.717Z,24.87
2018-01-13T21:20:50.959Z,21.83
2018-01-13T21:23:25.474Z,21.53
2018-01-13T21:25:59.944Z,28.03
2018-01-13T21:28:34.512Z,27.27
2018-01-13T21:31:08.364Z,23.53
2018-01-13T21:33:44.360Z,22.37
2018-01-13T21:36:19.502Z,20.40
2018-01-13T21:38:54.028Z,27.43
2018-01-13T21:41:28.858Z,26.73
2018-01-13T21:44:02.765Z,29.57
2018-01-13T21:46:36.158Z,25.10
2018-01-13T21:49:09.962Z,27.13
2018-01-13T21:51:45.305Z,23.80
2018-01-13T21:54:20.027Z,20.53
2018-01-13T21:56:54.450Z,22.00
2018-01-13T21:59:30.095Z,23.53
2018-01-13T22:02:03.386Z,25.97
2018-01-13T22:04:37.390Z,22.40
2018-01-13T22:07:11.610Z,22.27
2018-01-13T22:09:45.827Z,25.13
2018-01-13T22:12:19.115Z,27.53
2018-01-13T22:14:54.505Z,24.27
2018-01-13T22:17:28.312Z,21.40
2018-01-13T22:20:02.333Z,23.80
2018-01-13T22:22:35.558Z,27.00
2018-01-13T22:25:08.849Z,20.27
2018-01-13T22:27:42.115Z,24.50
2018-01-13T22:30:15.246Z,24.07
2018-01-13T22:32:48.113Z,21.77
2018-01-13T22:35:21.070Z,23.33
2018-01-13T22:37:54.211Z,21.87
2018-01-13T22:40:28.426Z,24.27
2018-01-13T22:43:01.912Z,21.23
2018-01-13T22:45:35.432Z,21.70
2018-01-13T22:48:09.168Z,25.50
2018-01-13T22:50:42.520Z,30.10
2018-01-13T22:53:15.943Z,24.50
2018-01-13T22:55:48.704Z,21.77
2018-01-13T22:58:21.428Z,24.30
2018-01-13T23:00:54.821Z,25.17
2018-01-13T23:03:27.360Z,21.20
2018-01-13T23:05:59.882Z,23.20
2018-01-13T23:08:32.345Z,25.60
2018-01-13T23:11:05.798Z,24.13
2018-01-13T23:13:38.675Z,28.23
2018-01-13T23:16:11.129Z,21.73
2018-01-13T23:18:45.219Z,23.60
2018-01-13T23:21:18.264Z,21.20
2018-01-13T23:23:50.827Z,22.83
2018-01-13T23:26:23.549Z,25.40
2018-01-13T23:28:56.241Z,26.37
2018-01-13T23:31:28.933Z,23.13
2018-01-13T23:34:01.410Z,26.47
2018-01-13T23:36:33.963Z,22.00
2018-01-13T23:39:06.376Z,20.27
2018-01-13T23:41:38.844Z,23.90
2018-01-13T23:44:11.261Z,21.80
2018-01-13T23:46:44.007Z,23.53
2018-01-13T23:49:16.690Z,24.33
2018-01-13T23:51:49.199Z,22.43
2018-01-13T23:54:21.766Z,19.90
2018-01-13T23:56:54.381Z,23.77
2018-01-13T23:59:27.883Z,23.80
